Time;durP1;ratioP1;P1;durP2;ratioP2;P2;SDS_P1;SDS_P2;PMS_P1;PMS_P2;Temp;Humidity;BMP_temperature;BMP_pressure;BME280_temperature;BME280_humidity;BME280_pressure;Samples;Min_cycle;Max_cycle;Signal;HPM_P1;HPM_P2
2021/11/19 00:02:10;;;;;;;32.22;20.75;;;230.60;2252.80;;;;;;4936350;29;20032;-80
2021/11/19 00:04:36;;;;;;;32.20;24.30;;;230.60;2252.80;;;;;;4952548;29;20031;-80
2021/11/19 00:07:04;;;;;;;45.78;29.52;;;230.60;2252.80;;;;;;4936506;29;20049;-81
2021/11/19 00:09:31;;;;;;;87.70;50.83;;;230.70;2252.80;;;;;;4937477;29;20036;-81
2021/11/19 00:11:58;;;;;;;55.97;33.13;;;230.70;2252.80;;;;;;4936581;29;20404;-80
2021/11/19 00:14:25;;;;;;;40.95;25.33;;;230.60;2252.80;;;;;;4937537;29;20036;-79
2021/11/19 00:16:57;;;;;;;54.20;30.35;;;230.60;2252.80;;;;;;4936091;29;20139;-81
2021/11/19 00:19:24;;;;;;;58.17;34.23;;;230.60;2252.80;;;;;;4935568;29;20536;-83
2021/11/19 00:21:51;;;;;;;33.40;20.63;;;230.60;2252.80;;;;;;4936216;29;20035;-80
2021/11/19 00:24:18;;;;;;;51.35;30.25;;;230.60;2252.80;;;;;;4936917;29;20028;-80
2021/11/19 00:26:44;;;;;;;49.53;30.55;;;230.60;2252.80;;;;;;4937448;29;20030;-83
2021/11/19 00:29:11;;;;;;;54.15;28.63;;;230.60;2252.80;;;;;;4935926;29;20032;-80
2021/11/19 00:31:39;;;;;;;44.97;27.42;;;230.60;2252.80;;;;;;4936064;29;20032;-81
2021/11/19 00:34:05;;;;;;;52.90;31.25;;;230.60;2252.80;;;;;;4935990;29;20035;-81
2021/11/19 00:36:33;;;;;;;51.50;31.67;;;230.60;2252.80;;;;;;4935705;29;20160;-81
2021/11/19 00:39:03;;;;;;;54.00;32.35;;;230.60;2252.80;;;;;;4936095;29;20028;-81
2021/11/19 00:41:30;;;;;;;47.05;29.10;;;230.60;2252.80;;;;;;4935824;29;20035;-79
2021/11/19 00:43:56;;;;;;;45.95;27.90;;;230.60;2252.80;;;;;;4937189;29;20070;-81
2021/11/19 00:46:22;;;;;;;45.55;25.67;;;230.60;2252.80;;;;;;4937253;29;20032;-81
2021/11/19 00:48:48;;;;;;;54.10;28.88;;;230.60;2252.80;;;;;;4935827;29;20031;-83
2021/11/19 00:51:19;;;;;;;64.35;34.75;;;230.60;2252.80;;;;;;4935590;29;20028;-82
2021/11/19 00:53:48;;;;;;;79.53;45.80;;;230.60;2252.80;;;;;;4935844;29;20110;-81
2021/11/19 00:56:17;;;;;;;42.17;27.02;;;230.60;2252.80;;;;;;4935676;29;20087;-82
2021/11/19 00:58:44;;;;;;;37.35;23.05;;;230.60;2252.80;;;;;;4934982;29;20098;-81
2021/11/19 01:01:15;;;;;;;31.00;19.25;;;230.60;2252.80;;;;;;4935890;29;20049;-80
2021/11/19 01:03:41;;;;;;;33.15;19.65;;;230.60;2252.80;;;;;;4935521;29;20054;-81
2021/11/19 01:06:07;;;;;;;39.40;22.27;;;230.60;2252.80;;;;;;4936519;29;20032;-81
2021/11/19 01:08:33;;;;;;;30.67;18.48;;;230.60;2252.80;;;;;;4937131;29;20549;-81
2021/11/19 01:11:02;;;;;;;26.63;16.05;;;230.60;2252.80;;;;;;4951579;29;20102;-82
2021/11/19 01:13:29;;;;;;;26.35;17.23;;;230.50;2252.80;;;;;;4936456;29;20079;-82
2021/11/19 01:16:03;;;;;;;27.88;17.02;;;230.50;2252.80;;;;;;4936920;29;20031;-80
2021/11/19 01:18:37;;;;;;;27.23;18.05;;;230.50;2252.80;;;;;;4935182;29;20083;-81
2021/11/19 01:21:10;;;;;;;28.25;19.10;;;230.60;2252.80;;;;;;4936431;29;20102;-80
2021/11/19 01:23:36;;;;;;;29.65;18.48;;;230.60;2252.80;;;;;;4951490;29;20027;-81
2021/11/19 01:26:14;;;;;;;24.77;15.30;;;230.60;2252.80;;;;;;4935261;29;20039;-82
2021/11/19 01:28:42;;;;;;;28.38;18.02;;;230.60;2252.80;;;;;;4935559;29;20496;-81
2021/11/19 01:31:14;;;;;;;27.60;18.77;;;230.60;2252.80;;;;;;4937874;29;20028;-81
2021/11/19 01:33:41;;;;;;;25.42;17.40;;;230.60;2252.80;;;;;;4939073;29;20028;-81
2021/11/19 01:36:07;;;;;;;36.47;20.38;;;230.60;2252.80;;;;;;4939131;29;20035;-82
2021/11/19 01:38:33;;;;;;;53.85;27.85;;;230.60;2252.80;;;;;;4939193;29;20043;-81
2021/11/19 01:41:05;;;;;;;46.42;24.92;;;230.60;2252.80;;;;;;4939093;29;20035;-82
2021/11/19 01:43:34;;;;;;;56.95;27.58;;;230.60;2252.80;;;;;;4939207;29;20504;-82
2021/11/19 01:46:05;;;;;;;38.97;22.55;;;230.60;2252.80;;;;;;4955149;29;20032;-82
2021/11/19 01:48:39;;;;;;;37.72;22.25;;;230.60;2252.80;;;;;;4939058;29;20111;-80
2021/11/19 01:51:24;;;;;;;31.83;18.17;;;230.60;2252.80;;;;;;4940525;29;20027;-81
2021/11/19 01:54:06;;;;;;;30.52;19.23;;;230.60;2252.80;;;;;;4939567;29;20027;-82
2021/11/19 01:56:35;;;;;;;35.63;20.73;;;230.60;2252.80;;;;;;4940987;29;20028;-82
2021/11/19 01:59:27;;;;;;;45.20;23.52;;;230.60;2252.80;;;;;;4942001;29;20039;-81
2021/11/19 02:01:58;;;;;;;37.42;22.10;;;230.50;2252.80;;;;;;4958729;29;20026;-82
2021/11/19 02:04:30;;;;;;;39.72;24.10;;;230.60;2252.80;;;;;;4941994;29;20038;-82
2021/11/19 02:06:59;;;;;;;30.98;19.63;;;230.60;2252.80;;;;;;4941972;29;20499;-82
2021/11/19 02:10:06;;;;;;;32.65;20.75;;;230.60;2252.80;;;;;;4958911;29;20031;-82
2021/11/19 02:12:41;;;;;;;35.55;21.35;;;230.50;2252.80;;;;;;4934023;29;20043;-82
2021/11/19 02:15:39;;;;;;;30.02;17.98;;;230.60;2252.80;;;;;;4941695;29;20054;-83
2021/11/19 02:18:30;;;;;;;29.27;16.90;;;230.60;2252.80;;;;;;4930289;29;20086;-82
2021/11/19 02:21:06;;;;;;;28.42;18.25;;;230.60;2252.80;;;;;;4941739;29;20027;-81
2021/11/19 02:23:57;;;;;;;32.70;20.35;;;230.60;2252.80;;;;;;4958924;29;20106;-82
2021/11/19 02:26:30;;;;;;;27.77;16.60;;;230.70;2252.80;;;;;;4931160;29;20039;-81
2021/11/19 02:28:56;;;;;;;23.20;16.10;;;230.60;2252.80;;;;;;4941053;29;20126;-81
2021/11/19 02:31:30;;;;;;;23.33;14.45;;;230.60;2252.80;;;;;;4941406;29;20027;-81
2021/11/19 02:34:00;;;;;;;18.00;13.13;;;230.60;2252.80;;;;;;4958864;29;20031;-81
2021/11/19 02:36:48;;;;;;;19.73;14.02;;;230.60;2252.80;;;;;;4958226;29;20028;-82
2021/11/19 02:39:20;;;;;;;23.45;15.38;;;230.50;2252.80;;;;;;4958270;29;20365;-81
2021/11/19 02:41:50;;;;;;;22.42;14.82;;;230.60;2252.80;;;;;;4941320;29;20062;-81
2021/11/19 02:44:24;;;;;;;22.50;13.80;;;230.60;2252.80;;;;;;4940505;29;20519;-82
2021/11/19 02:46:58;;;;;;;26.88;15.60;;;230.60;2252.80;;;;;;4958177;29;20106;-81
2021/11/19 02:49:25;;;;;;;29.95;17.17;;;230.60;2252.80;;;;;;4940935;29;20473;-81
2021/11/19 02:51:52;;;;;;;25.67;17.20;;;230.60;2252.80;;;;;;4958514;29;20031;-82
2021/11/19 02:54:21;;;;;;;31.67;17.52;;;230.50;2252.80;;;;;;4941026;29;20030;-82
2021/11/19 02:56:48;;;;;;;30.25;19.13;;;230.50;2252.80;;;;;;4940682;29;20063;-82
2021/11/19 02:59:15;;;;;;;29.92;17.05;;;230.50;2252.80;;;;;;4940944;29;20041;-82
2021/11/19 03:01:48;;;;;;;25.70;16.02;;;230.50;2252.80;;;;;;4957905;29;20032;-81
2021/11/19 03:04:19;;;;;;;;;;;230.50;2252.80;;;;;;4941027;29;20028;-82
2021/11/19 03:06:47;;;;;;;33.03;18.58;;;230.50;2252.80;;;;;;4940860;29;19907;-82
2021/11/19 03:09:21;;;;;;;38.80;19.45;;;230.50;2252.80;;;;;;4958242;29;20027;-81
2021/11/19 03:11:47;;;;;;;31.98;19.08;;;230.50;2252.80;;;;;;4940562;29;20483;-81
2021/11/19 03:14:14;;;;;;;27.30;18.10;;;230.50;2252.80;;;;;;4957793;29;20074;-81
2021/11/19 03:16:41;;;;;;;26.63;17.05;;;230.50;2252.80;;;;;;4940589;29;20032;-82
2021/11/19 03:19:08;;;;;;;28.60;17.75;;;230.50;2252.80;;;;;;4940374;29;20050;-82
2021/11/19 03:21:35;;;;;;;27.90;18.05;;;230.50;2252.80;;;;;;4940809;29;20050;-81
2021/11/19 03:24:01;;;;;;;22.65;14.93;;;230.50;2252.80;;;;;;4940724;29;20388;-81
2021/11/19 03:26:29;;;;;;;23.90;16.15;;;230.50;2252.80;;;;;;4940345;29;20027;-81
2021/11/19 03:28:54;;;;;;;33.05;18.88;;;230.50;2252.80;;;;;;4940552;29;20122;-82
2021/11/19 03:31:20;;;;;;;30.50;18.65;;;230.50;2252.80;;;;;;4940020;29;20118;-82
2021/11/19 03:33:49;;;;;;;26.90;17.63;;;230.50;2252.80;;;;;;4940366;29;20058;-81
2021/11/19 03:36:17;;;;;;;28.77;18.25;;;230.50;2252.80;;;;;;4957532;29;20058;-82
2021/11/19 03:38:46;;;;;;;25.83;16.98;;;230.50;2252.80;;;;;;4939931;29;20039;-81
2021/11/19 03:41:14;;;;;;;22.48;15.32;;;230.50;2252.80;;;;;;4940306;29;20027;-82
2021/11/19 03:43:49;;;;;;;25.88;16.58;;;230.50;2252.80;;;;;;4940224;29;20028;-81
2021/11/19 03:46:20;;;;;;;24.38;16.00;;;230.50;2252.80;;;;;;4939948;29;20039;-81
2021/11/19 03:48:46;;;;;;;25.67;16.13;;;230.40;2252.80;;;;;;4957966;29;20085;-81
2021/11/19 03:51:26;;;;;;;24.55;16.33;;;230.50;2252.80;;;;;;4940155;29;20492;-82
2021/11/19 03:53:52;;;;;;;23.80;15.98;;;230.40;2252.80;;;;;;4939322;29;20031;-83
2021/11/19 03:56:18;;;;;;;31.30;18.67;;;230.40;2252.80;;;;;;4978043;28;20024;-81
2021/11/19 03:58:45;;;;;;;28.13;18.00;;;230.40;2252.80;;;;;;4954361;29;20389;-82
2021/11/19 04:01:16;;;;;;;30.85;19.73;;;230.40;2252.80;;;;;;4939853;29;20031;-82
2021/11/19 04:03:43;;;;;;;29.05;19.20;;;230.50;2252.80;;;;;;4955980;29;20029;-82
2021/11/19 04:06:09;;;;;;;25.45;18.00;;;230.40;2252.80;;;;;;4939650;29;20524;-80
2021/11/19 04:08:35;;;;;;;26.02;18.23;;;230.40;2252.80;;;;;;4939720;29;20039;-82
2021/11/19 04:11:03;;;;;;;23.25;15.27;;;230.40;2252.80;;;;;;4939794;29;20034;-82
2021/11/19 04:13:29;;;;;;;23.33;15.38;;;230.40;2252.80;;;;;;4956405;29;20066;-82
2021/11/19 04:16:00;;;;;;;23.90;15.90;;;205.70;2252.80;;;;;;4956860;29;20036;-81
2021/11/19 04:18:26;;;;;;;22.15;15.10;;;230.40;2252.80;;;;;;4939370;29;20024;-81
2021/11/19 04:20:54;;;;;;;23.65;16.27;;;230.40;2252.80;;;;;;4939363;29;20027;-82
2021/11/19 04:23:20;;;;;;;28.48;17.17;;;230.40;2252.80;;;;;;4939607;29;20094;-82
2021/11/19 04:25:47;;;;;;;27.48;18.17;;;230.40;2252.80;;;;;;4939738;29;20038;-82
2021/11/19 04:28:13;;;;;;;26.15;17.05;;;230.40;2252.80;;;;;;4939153;29;20121;-82
2021/11/19 04:30:44;;;;;;;28.90;18.45;;;230.40;2252.80;;;;;;4939464;29;20023;-81
2021/11/19 04:33:10;;;;;;;30.48;19.73;;;230.40;2252.80;;;;;;4956541;29;20023;-81
2021/11/19 04:35:37;;;;;;;29.55;19.65;;;230.40;2252.80;;;;;;4956237;29;20109;-80
2021/11/19 04:38:04;;;;;;;27.08;18.38;;;230.40;2252.80;;;;;;4939239;29;20122;-81
2021/11/19 04:40:35;;;;;;;23.88;15.95;;;205.70;2252.80;;;;;;4955050;29;20043;-81
2021/11/19 04:43:01;;;;;;;24.42;16.75;;;230.40;2252.80;;;;;;4939150;29;20031;-81
2021/11/19 04:45:29;;;;;;;31.55;20.05;;;230.40;2252.80;;;;;;4956745;29;20106;-81
2021/11/19 04:47:55;;;;;;;29.42;18.95;;;230.40;2252.80;;;;;;4939166;29;20035;-81
2021/11/19 04:50:25;;;;;;;26.60;17.85;;;230.40;2252.80;;;;;;4938798;29;20405;-81
2021/11/19 04:52:51;;;;;;;31.00;19.77;;;230.40;2252.80;;;;;;4938943;29;20400;-81
2021/11/19 04:55:18;;;;;;;33.15;22.23;;;230.40;2252.80;;;;;;4938696;29;20027;-81
2021/11/19 04:57:44;;;;;;;33.45;21.80;;;230.40;2252.80;;;;;;4938620;29;20593;-82
2021/11/19 05:00:15;;;;;;;40.40;24.48;;;230.40;2252.80;;;;;;4956330;29;20039;-82
2021/11/19 05:02:41;;;;;;;50.03;31.10;;;230.40;2252.80;;;;;;4938578;29;20495;-81
2021/11/19 05:05:07;;;;;;;39.25;24.23;;;230.40;2252.80;;;;;;4955863;28;20111;-81
2021/11/19 05:07:33;;;;;;;48.05;28.88;;;230.40;2252.80;;;;;;4938631;29;20122;-82
2021/11/19 05:09:59;;;;;;;42.40;26.42;;;230.40;2252.80;;;;;;4954406;29;20114;-82
2021/11/19 05:12:28;;;;;;;30.80;18.38;;;230.40;2252.80;;;;;;4956209;29;20031;-82
2021/11/19 05:14:54;;;;;;;39.88;24.10;;;230.40;2252.80;;;;;;4938660;29;20032;-82
2021/11/19 05:17:22;;;;;;;31.85;20.35;;;230.40;2252.80;;;;;;4938442;29;20086;-82
2021/11/19 05:19:51;;;;;;;36.65;21.67;;;230.40;2252.80;;;;;;4955737;29;20097;-82
2021/11/19 05:22:18;;;;;;;39.92;23.15;;;230.40;2252.80;;;;;;4938564;29;20126;-82
2021/11/19 05:24:44;;;;;;;34.13;21.10;;;205.60;2252.80;;;;;;4938428;29;20070;-82
2021/11/19 05:27:10;;;;;;;30.27;20.10;;;230.40;2252.80;;;;;;4954472;29;20028;-82
2021/11/19 05:29:37;;;;;;;30.23;19.63;;;230.40;2252.80;;;;;;4955438;29;20086;-83
2021/11/19 05:32:04;;;;;;;29.48;19.63;;;230.50;2252.80;;;;;;4955604;29;20115;-82
2021/11/19 05:34:30;;;;;;;28.10;19.70;;;230.50;2252.80;;;;;;4938556;29;20034;-82
2021/11/19 05:36:56;;;;;;;28.15;20.00;;;230.50;2252.80;;;;;;4954381;29;20028;-82
2021/11/19 05:39:22;;;;;;;35.38;26.92;;;230.50;2252.80;;;;;;4954134;29;20039;-82
2021/11/19 05:41:49;;;;;;;30.08;20.75;;;230.40;2252.80;;;;;;4955254;29;20392;-82
2021/11/19 05:44:15;;;;;;;31.70;23.15;;;230.40;2252.80;;;;;;4955358;29;20027;-82
2021/11/19 05:46:41;;;;;;;47.13;28.95;;;230.40;2252.80;;;;;;4938268;29;20038;-82
2021/11/19 05:49:16;;;;;;;38.47;23.42;;;230.40;2252.80;;;;;;4954246;29;20141;-83
2021/11/19 05:51:43;;;;;;;34.13;20.58;;;230.40;2252.80;;;;;;4955547;29;20484;-82
2021/11/19 05:54:12;;;;;;;44.42;25.70;;;230.40;2252.80;;;;;;4938413;29;20031;-83
2021/11/19 05:56:38;;;;;;;89.65;42.90;;;230.40;2252.80;;;;;;4937950;29;20031;-82
2021/11/19 05:59:04;;;;;;;264.15;106.28;;;230.40;2252.80;;;;;;4955227;29;20039;-82
2021/11/19 06:01:30;;;;;;;196.85;82.88;;;230.40;2252.80;;;;;;4938214;29;20035;-77
2021/11/19 06:03:56;;;;;;;163.55;75.70;;;230.50;2252.80;;;;;;4938327;29;20031;-81
2021/11/19 06:06:23;;;;;;;142.45;66.13;;;230.50;2252.80;;;;;;4937800;29;20186;-77
2021/11/19 06:08:48;;;;;;;88.90;46.53;;;230.50;2252.80;;;;;;4938020;29;20473;-82
2021/11/19 06:11:23;;;;;;;82.20;47.67;;;230.50;2252.80;;;;;;4955051;29;20105;-82
2021/11/19 06:14:00;;;;;;;98.28;56.97;;;230.50;2252.80;;;;;;4937925;29;20077;-81
2021/11/19 06:16:31;;;;;;;63.45;34.35;;;230.50;2252.80;;;;;;4938140;29;20027;-80
2021/11/19 06:19:04;;;;;;;61.13;34.85;;;230.50;2252.80;;;;;;4957927;29;20024;-82
2021/11/19 06:21:35;;;;;;;61.70;32.33;;;230.50;2252.80;;;;;;4957328;29;20054;-81
2021/11/19 06:24:06;;;;;;;61.20;32.63;;;230.50;2252.80;;;;;;4941777;29;20031;-80
2021/11/19 06:26:32;;;;;;;69.90;35.08;;;230.50;2252.80;;;;;;4957255;29;20387;-81
2021/11/19 06:29:06;;;;;;;82.60;46.40;;;230.70;2252.80;;;;;;4958805;29;20082;-80
2021/11/19 06:31:41;;;;;;;72.90;39.85;;;230.50;2252.80;;;;;;4941579;29;20539;-81
2021/11/19 06:34:07;;;;;;;62.20;36.17;;;230.50;2252.80;;;;;;4958585;29;20098;-82
2021/11/19 06:36:33;;;;;;;53.90;32.20;;;230.50;2252.80;;;;;;4958789;29;20409;-80
2021/11/19 06:39:01;;;;;;;55.83;33.83;;;230.50;2252.80;;;;;;4957235;29;20035;-81
2021/11/19 06:41:28;;;;;;;38.47;23.60;;;230.60;2252.80;;;;;;4957859;29;20061;-81
2021/11/19 06:43:54;;;;;;;50.45;30.63;;;230.60;2252.80;;;;;;4941269;29;20034;-80
2021/11/19 06:46:22;;;;;;;63.00;41.53;;;230.60;2252.80;;;;;;4941087;29;20028;-80
2021/11/19 06:48:48;;;;;;;72.15;50.33;;;230.60;2252.80;;;;;;4958119;29;20067;-79
2021/11/19 06:51:16;;;;;;;87.00;62.30;;;230.50;2252.80;;;;;;4941140;29;20050;-79
2021/11/19 06:53:41;;;;;;;82.75;60.78;;;230.60;2252.80;;;;;;4940807;29;20115;-80
2021/11/19 06:56:08;;;;;;;56.40;37.65;;;230.60;2252.80;;;;;;4957910;29;20035;-80
2021/11/19 06:58:35;;;;;;;48.50;33.17;;;230.60;2252.80;;;;;;4940430;29;20055;-80
2021/11/19 07:01:02;;;;;;;48.97;34.95;;;230.60;2252.80;;;;;;4941002;29;20066;-80
2021/11/19 07:03:28;;;;;;;48.97;34.63;;;230.70;2252.80;;;;;;4940505;29;20365;-80
2021/11/19 07:05:54;;;;;;;51.50;34.90;;;230.70;2252.80;;;;;;4956745;29;20425;-80
2021/11/19 07:08:21;;;;;;;51.33;34.45;;;230.70;2252.80;;;;;;4957779;29;20166;-79
2021/11/19 07:10:53;;;;;;;57.22;38.05;;;231.20;2252.80;;;;;;4940752;29;20027;-80
2021/11/19 07:13:19;;;;;;;;;;;230.80;2252.80;;;;;;4941089;29;20058;-80
2021/11/19 07:15:45;;;;;;;39.90;29.70;;;230.80;2252.80;;;;;;4940386;29;19906;-79
2021/11/19 07:18:11;;;;;;;38.60;27.80;;;230.70;2252.80;;;;;;4956628;29;20039;-79
2021/11/19 07:20:38;;;;;;;36.70;26.90;;;230.80;2252.80;;;;;;4940483;29;20027;-80
2021/11/19 07:23:04;;;;;;;44.13;30.65;;;230.80;2252.80;;;;;;4940321;29;20086;-80
2021/11/19 07:25:32;;;;;;;52.63;34.60;;;230.80;2252.80;;;;;;4940340;29;20027;-80
2021/11/19 07:27:59;;;;;;;52.28;33.08;;;230.80;2252.80;;;;;;4957614;29;20023;-79
2021/11/19 07:30:38;;;;;;;58.45;30.17;;;230.80;2252.80;;;;;;4939592;29;20034;-80
2021/11/19 07:33:04;;;;;;;40.53;24.75;;;230.80;2252.80;;;;;;4940323;29;20027;-80
2021/11/19 07:35:30;;;;;;;38.53;22.95;;;230.80;2252.80;;;;;;4940207;29;20039;-80
2021/11/19 07:37:56;;;;;;;39.63;24.15;;;230.80;2252.80;;;;;;4956812;29;20460;-78
2021/11/19 07:40:26;;;;;;;38.22;26.73;;;230.90;2252.80;;;;;;4940173;29;20070;-79
2021/11/19 07:42:52;;;;;;;51.67;30.98;;;230.90;2252.80;;;;;;4957471;29;20150;-81
2021/11/19 07:45:18;;;;;;;43.55;26.60;;;230.90;2252.80;;;;;;4955775;29;20050;-79
2021/11/19 07:47:46;;;;;;;35.08;23.58;;;230.90;2252.80;;;;;;4940104;29;20466;-79
2021/11/19 07:50:15;;;;;;;46.63;28.52;;;231.00;2252.80;;;;;;4939931;29;20102;-79
2021/11/19 07:52:41;;;;;;;37.50;23.00;;;231.00;2252.80;;;;;;4940011;29;20032;-80
2021/11/19 07:55:09;;;;;;;35.42;21.85;;;231.00;2252.80;;;;;;4957361;29;20038;-79
2021/11/19 07:57:35;;;;;;;33.33;19.40;;;231.00;2252.80;;;;;;4939321;29;20082;-81
2021/11/19 08:00:08;;;;;;;26.10;18.00;;;231.00;2252.80;;;;;;4957306;29;20070;-80
2021/11/19 08:02:35;;;;;;;29.45;18.92;;;231.00;2252.80;;;;;;4957088;29;20027;-81
2021/11/19 08:05:01;;;;;;;28.17;18.35;;;231.10;2252.80;;;;;;4956902;29;20038;-80
2021/11/19 08:07:26;;;;;;;27.45;17.92;;;231.10;2252.80;;;;;;4957050;29;20027;-80
2021/11/19 08:09:52;;;;;;;31.33;21.90;;;231.10;2252.80;;;;;;4939732;29;20073;-80
2021/11/19 08:12:18;;;;;;;31.73;22.27;;;231.10;2252.80;;;;;;4939443;29;20067;-80
2021/11/19 08:14:44;;;;;;;31.85;19.40;;;231.20;2252.80;;;;;;4939668;29;20497;-80
2021/11/19 08:17:26;;;;;;;25.77;17.55;;;231.20;2252.80;;;;;;4939457;29;20384;-79
2021/11/19 08:19:52;;;;;;;29.50;19.67;;;231.10;2252.80;;;;;;4939028;29;20039;-81
2021/11/19 08:22:19;;;;;;;29.80;18.63;;;231.10;2252.80;;;;;;4939250;29;20488;-81
2021/11/19 08:24:45;;;;;;;27.00;17.10;;;231.30;2252.80;;;;;;4939202;29;20032;-81
2021/11/19 08:27:18;;;;;;;25.70;17.48;;;231.20;2252.80;;;;;;4956340;29;20110;-80
2021/11/19 08:29:46;;;;;;;27.42;19.42;;;231.20;2252.80;;;;;;4939381;29;20027;-81
2021/11/19 08:32:14;;;;;;;29.13;19.50;;;231.20;2252.80;;;;;;4938923;29;20034;-82
2021/11/19 08:34:41;;;;;;;29.67;19.58;;;231.20;2252.80;;;;;;4939174;29;20028;-79
2021/11/19 08:37:07;;;;;;;28.77;18.75;;;256.00;2252.80;;;;;;4957033;29;20437;-81
2021/11/19 08:39:34;;;;;;;24.33;16.80;;;231.30;2252.80;;;;;;4948830;29;20103;-78
2021/11/19 08:42:00;;;;;;;25.67;16.13;;;231.30;2252.80;;;;;;4980149;28;20027;-79
2021/11/19 08:44:26;;;;;;;26.60;16.85;;;256.00;2252.80;;;;;;4971096;29;20043;-79
2021/11/19 08:46:55;;;;;;;28.23;18.42;;;256.00;2252.80;;;;;;4954394;29;20031;-79
2021/11/19 08:49:27;;;;;;;35.75;22.25;;;256.00;2252.80;;;;;;4939302;29;20042;-79
2021/11/19 08:51:54;;;;;;;;;;;256.10;2252.80;;;;;;4956088;29;20039;-79
2021/11/19 08:54:20;;;;;;;26.05;16.25;;;256.10;2252.80;;;;;;4938235;29;19906;-81
2021/11/19 08:56:52;;;;;;;25.73;17.50;;;256.10;2252.80;;;;;;4938568;29;20031;-81
2021/11/19 08:59:20;;;;;;;34.03;20.65;;;256.10;2252.80;;;;;;4938680;29;20381;-81
2021/11/19 09:01:50;;;;;;;46.78;26.58;;;256.20;2252.80;;;;;;4955847;29;20035;-81
2021/11/19 09:04:17;;;;;;;37.45;24.17;;;256.30;2252.80;;;;;;4938844;29;20420;-81
2021/11/19 09:06:43;;;;;;;25.00;15.77;;;256.40;2252.80;;;;;;4956057;29;20461;-81
2021/11/19 09:09:10;;;;;;;21.85;15.68;;;256.40;2252.80;;;;;;4955281;29;20031;-81
2021/11/19 09:11:38;;;;;;;25.65;15.88;;;256.40;2252.80;;;;;;4954204;29;20034;-79
2021/11/19 09:14:04;;;;;;;20.98;14.15;;;256.40;2252.80;;;;;;4955817;29;20086;-80
2021/11/19 09:16:53;;;;;;;31.10;18.42;;;256.40;2252.80;;;;;;4955769;29;20024;-80
2021/11/19 09:19:49;;;;;;;30.42;16.30;;;256.40;2252.80;;;;;;4908807;29;20046;-82
2021/11/19 09:22:31;;;;;;;35.78;19.92;;;256.50;2252.80;;;;;;4938222;29;20035;-83
2021/11/19 09:24:59;;;;;;;27.38;17.23;;;256.50;2252.80;;;;;;4955618;29;20086;-82
2021/11/19 09:27:28;;;;;;;23.90;13.02;;;256.50;2252.80;;;;;;4938384;29;20028;-81
2021/11/19 09:29:59;;;;;;;43.25;24.45;;;256.60;2252.80;;;;;;4955742;29;20086;-81
2021/11/19 09:32:26;;;;;;;28.67;18.00;;;256.70;2252.80;;;;;;4955697;29;20027;-82
2021/11/19 09:34:56;;;;;;;23.63;14.18;;;256.70;2252.80;;;;;;4955596;29;20027;-82
2021/11/19 09:37:24;;;;;;;44.05;22.15;;;256.70;2252.80;;;;;;4955369;29;20107;-81
2021/11/19 09:39:51;;;;;;;21.70;12.73;;;256.70;2252.80;;;;;;4938223;29;20477;-81
2021/11/19 09:42:23;;;;;;;35.50;19.67;;;256.70;2252.80;;;;;;4938000;29;20031;-82
2021/11/19 09:45:21;;;;;;;22.63;13.73;;;256.90;2252.80;;;;;;4937944;29;20086;-80
2021/11/19 09:47:56;;;;;;;23.15;15.50;;;281.60;2278.40;;;;;;4955500;29;20024;-80
2021/11/19 09:50:49;;;;;;;18.58;12.70;;;281.60;2278.40;;;;;;4937974;29;20031;-81
2021/11/19 09:53:43;;;;;;;20.88;12.00;;;281.70;2278.40;;;;;;4939793;29;20485;-81
2021/11/19 09:56:30;;;;;;;20.73;13.27;;;281.70;2278.40;;;;;;4941886;29;20034;-80
2021/11/19 09:59:35;;;;;;;30.17;18.85;;;281.70;2278.40;;;;;;4947704;29;20126;-80
2021/11/19 10:02:23;;;;;;;23.48;16.05;;;281.70;2278.40;;;;;;4941846;29;20035;-80
2021/11/19 10:05:22;;;;;;;18.83;12.30;;;281.80;2278.40;;;;;;4941755;29;20106;-80
2021/11/19 10:08:13;;;;;;;23.42;15.55;;;281.80;2278.40;;;;;;4941862;29;20027;-80
2021/11/19 10:10:51;;;;;;;15.43;9.90;;;281.80;2278.40;;;;;;4958632;29;20023;-80
2021/11/19 10:13:42;;;;;;;23.75;15.60;;;281.70;2278.40;;;;;;4958958;29;20026;-80
2021/11/19 10:16:14;;;;;;;25.20;15.18;;;281.70;2278.40;;;;;;4941562;29;20424;-79
2021/11/19 10:19:06;;;;;;;26.20;14.60;;;281.80;2278.40;;;;;;4958462;29;20042;-79
2021/11/19 10:21:39;;;;;;;20.38;11.27;;;281.80;2278.40;;;;;;4941389;29;20057;-78
2021/11/19 10:24:39;;;;;;;13.98;10.27;;;281.80;2278.40;;;;;;4940769;29;20063;-77
2021/11/19 10:27:11;;;;;;;15.70;11.85;;;281.80;2278.40;;;;;;4941326;29;20077;-78
2021/11/19 10:29:48;;;;;;;14.52;10.57;;;281.80;2278.40;;;;;;4941535;29;20082;-78
2021/11/19 10:32:20;;;;;;;25.48;18.55;;;281.80;2278.40;;;;;;4958395;29;20051;-77
2021/11/19 10:35:12;;;;;;;21.83;15.18;;;282.00;2278.40;;;;;;4958593;29;20461;-76
2021/11/19 10:38:00;;;;;;;33.75;23.77;;;282.20;2278.40;;;;;;4958455;29;20024;-77
2021/11/19 10:40:44;;;;;;;22.65;15.18;;;307.20;2304.00;;;;;;4958344;29;20074;-78
2021/11/19 10:43:10;;;;;;;20.25;11.27;;;307.40;2304.00;;;;;;4958305;29;20031;-78
2021/11/19 10:45:57;;;;;;;21.05;11.65;;;307.50;2304.00;;;;;;4957612;29;20034;-78
2021/11/19 10:48:40;;;;;;;23.48;10.98;;;307.70;2304.00;;;;;;4941308;29;20031;-77
2021/11/19 10:57:54;;;;;;;12.65;8.02;;;307.40;2304.00;;;;;;5111422;27;20445;-79
2021/11/19 11:00:23;;;;;;;14.75;8.85;;;307.40;2304.00;;;;;;5111413;28;20023;-79
2021/11/19 11:02:51;;;;;;;13.35;7.95;;;307.50;2304.00;;;;;;5111574;28;20375;-78
2021/11/19 11:05:26;;;;;;;231.98;24.92;;;307.60;2304.00;;;;;;5127253;28;20023;-78
2021/11/19 11:08:21;;;;;;;38.00;13.40;;;307.50;2304.00;;;;;;5113849;28;20028;-78
2021/11/19 11:11:04;;;;;;;17.70;10.68;;;307.80;2304.00;;;;;;5110336;28;20482;-79
2021/11/19 11:13:51;;;;;;;14.52;8.98;;;307.80;2304.00;;;;;;5111123;28;20023;-79
2021/11/19 11:16:17;;;;;;;13.02;8.65;;;307.50;2304.00;;;;;;5127112;28;20032;-77
2021/11/19 11:19:00;;;;;;;24.30;12.88;;;307.30;2304.00;;;;;;5126994;28;20439;-78
2021/11/19 11:21:36;;;;;;;48.78;19.63;;;307.20;2304.00;;;;;;5109609;28;20019;-80
2021/11/19 11:24:17;;;;;;;41.83;21.52;;;307.20;2304.00;;;;;;5111301;28;20111;-79
2021/11/19 11:26:54;;;;;;;30.40;15.18;;;307.20;2304.00;;;;;;5110997;28;20485;-79
2021/11/19 11:29:37;;;;;;;35.78;20.05;;;307.20;2304.00;;;;;;5109793;28;20035;-78
2021/11/19 11:32:03;;;;;;;;;;;307.30;2304.00;;;;;;5109921;28;20028;-78
2021/11/19 11:34:42;;;;;;;25.48;13.82;;;307.20;2304.00;;;;;;5109343;28;19904;-78
2021/11/19 11:37:17;;;;;;;32.35;16.48;;;282.50;2278.40;;;;;;5110911;28;20031;-79
2021/11/19 11:40:12;;;;;;;17.15;11.02;;;282.50;2278.40;;;;;;5110918;28;20035;-79
2021/11/19 11:42:41;;;;;;;25.92;13.57;;;282.50;2278.40;;;;;;5110880;28;20028;-79
2021/11/19 11:45:33;;;;;;;65.25;39.90;;;282.50;2278.40;;;;;;5109124;28;20111;-79
2021/11/19 11:48:20;;;;;;;24.40;14.43;;;282.50;2278.40;;;;;;5110476;28;20501;-79
2021/11/19 11:50:57;;;;;;;28.95;17.25;;;282.50;2278.40;;;;;;5109545;28;20024;-79
2021/11/19 11:53:23;;;;;;;27.80;15.57;;;307.30;2304.00;;;;;;5110351;28;20471;-78
2021/11/19 11:56:14;;;;;;;22.38;13.90;;;307.70;2304.00;;;;;;5108584;28;20055;-79
2021/11/19 11:59:01;;;;;;;17.88;11.18;;;308.00;2304.00;;;;;;5109159;28;20059;-79
2021/11/19 12:01:48;;;;;;;16.45;11.73;;;332.90;2278.40;;;;;;5108812;28;20114;-78
2021/11/19 12:04:31;;;;;;;14.20;9.15;;;333.40;2227.20;;;;;;5109971;28;20516;-79
2021/11/19 12:07:35;;;;;;;14.10;10.45;;;333.70;2176.00;;;;;;5106294;28;20059;-79
2021/11/19 12:10:55;;;;;;;63.70;32.00;;;358.60;2150.40;;;;;;5096474;28;20455;-78
2021/11/19 12:13:44;;;;;;;34.85;20.73;;;359.00;2124.80;;;;;;5074018;28;20090;-76
2021/11/19 12:16:49;;;;;;;20.77;13.20;;;359.00;2099.20;;;;;;5092814;28;20099;-76
2021/11/19 12:19:50;;;;;;;15.88;9.65;;;358.70;2124.80;;;;;;5096747;28;20070;-76
2021/11/19 12:22:19;;;;;;;37.47;19.95;;;358.60;2124.80;;;;;;5096301;28;20475;-77
2021/11/19 12:24:54;;;;;;;24.77;16.17;;;358.90;2099.20;;;;;;5094865;28;20027;-78
2021/11/19 12:27:26;;;;;;;22.77;14.20;;;359.00;2073.60;;;;;;5096455;28;20517;-76
2021/11/19 12:30:01;;;;;;;13.03;8.27;;;359.00;2073.60;;;;;;5096028;28;20034;-75
2021/11/19 12:32:37;;;;;;;17.67;13.15;;;358.50;2099.20;;;;;;5116968;28;20060;-77